Marin Sunshine — WDE5919 — position and weather

sailwx.info

Track history (hours):
 
Tides and Currents Weather Stations Pressure Air Temp Water Temp Dewpoint Dewpoint Depression Visibility Wind Speed Wind Dir Waves Ship Positions

Marin Sunshine

Owner: Marine Express, alameda, CA. More information available from US FCC via Universal Licensing System and Coast Guard Vessel Documentation Center.

Last reported at 2015-Apr-19 16:10 UTC. Time now 2015-Apr-19 21:08 UTC.
Position N 37°57' W 121°21'.

MMSI: 367373280.

Date/timePositionNaut miles runAvg speedWind from/ knotsBaromVisibWave heightAir tempDewpointWater temp
2015-Apr-19 16:10N 37°57' W 121°21'1 1.7
2015-Apr-19 15:33N 37°57' W 121°20'1 1.0
2015-Apr-19 14:34N 37°57' W 121°21'0 0.0
2015-Apr-19 13:34N 37°57' W 121°21'0 0.0
2015-Apr-19 12:33N 37°57' W 121°21'0 0.0
2015-Apr-18 14:18N 37°57' W 121°21'0 0.4
2015-Apr-18 13:33N 37°58' W 121°22'0 0.3
2015-Apr-18 12:29N 37°57' W 121°21'0 0.0
2015-Apr-17 14:33N 37°57' W 121°21'0 0.0
2015-Apr-17 13:33N 37°57' W 121°21'2 1.9
2015-Apr-17 12:33N 37°57' W 121°19'3 2.8
2015-Apr-17 11:33N 37°58' W 121°22'1 0.0
2015-Apr-15 23:33N 37°57' W 121°21'0 0.0
2015-Apr-15 22:33N 37°57' W 121°21'0 0.3
2015-Apr-15 21:33N 37°57' W 121°21'1 0.8
2015-Apr-15 20:33N 37°57' W 121°20'2 1.7
2015-Apr-15 19:33N 37°58' W 121°22'1 0.7
2015-Apr-15 18:33N 37°57' W 121°21'0 0.0
2015-Apr-15 17:33N 37°57' W 121°21'0 0.0
2015-Apr-15 16:33N 37°57' W 121°21'  
2015-Apr-13 10:25N 37°57' W 121°21'1 1.0
2015-Apr-13 09:34N 37°57' W 121°20'2 1.6
2015-Apr-13 08:33N 37°58' W 121°22'  
2015-Apr-10 23:33N 37°57' W 121°21'0 0.2
2015-Apr-10 22:33N 37°57' W 121°21'0 0.1
2015-Apr-10 21:33N 37°57' W 121°21'0 0.2
2015-Apr-10 20:33N 37°57' W 121°21'  
Track history (hours):
 
Tides and Currents Weather Stations Pressure Air Temp Water Temp Dewpoint Dewpoint Depression Visibility Wind Speed Wind Dir Waves Ship Positions

Marin Sunshine

Owner: Marine Express, alameda, CA. More information available from US FCC via Universal Licensing System and Coast Guard Vessel Documentation Center.

Last reported at 2015-Apr-19 16:10 UTC. Time now 2015-Apr-19 21:08 UTC.
Position N 37°57' W 121°21'.

MMSI: 367373280.

Date/timePositionNaut miles runAvg speedWind from/ knotsBaromVisibWave heightAir tempDewpointWater temp
2015-Apr-19 16:10N 37°57' W 121°21'1 1.7
2015-Apr-19 15:33N 37°57' W 121°20'1 1.0
2015-Apr-19 14:34N 37°57' W 121°21'0 0.0
2015-Apr-19 13:34N 37°57' W 121°21'0 0.0
2015-Apr-19 12:33N 37°57' W 121°21'0 0.0
2015-Apr-18 14:18N 37°57' W 121°21'0 0.4
2015-Apr-18 13:33N 37°58' W 121°22'0 0.3
2015-Apr-18 12:29N 37°57' W 121°21'0 0.0
2015-Apr-17 14:33N 37°57' W 121°21'0 0.0
2015-Apr-17 13:33N 37°57' W 121°21'2 1.9
2015-Apr-17 12:33N 37°57' W 121°19'3 2.8
2015-Apr-17 11:33N 37°58' W 121°22'1 0.0
2015-Apr-15 23:33N 37°57' W 121°21'0 0.0
2015-Apr-15 22:33N 37°57' W 121°21'0 0.3
2015-Apr-15 21:33N 37°57' W 121°21'1 0.8
2015-Apr-15 20:33N 37°57' W 121°20'2 1.7
2015-Apr-15 19:33N 37°58' W 121°22'1 0.7
2015-Apr-15 18:33N 37°57' W 121°21'0 0.0
2015-Apr-15 17:33N 37°57' W 121°21'0 0.0
2015-Apr-15 16:33N 37°57' W 121°21'  
2015-Apr-13 10:25N 37°57' W 121°21'1 1.0
2015-Apr-13 09:34N 37°57' W 121°20'2 1.6
2015-Apr-13 08:33N 37°58' W 121°22'  
2015-Apr-10 23:33N 37°57' W 121°21'0 0.2
2015-Apr-10 22:33N 37°57' W 121°21'0 0.1
2015-Apr-10 21:33N 37°57' W 121°21'0 0.2
2015-Apr-10 20:33N 37°57' W 121°21'  

Dump ship's entire track history